Juan De La Cosa — ECJE — position and weather

sailwx.info

Track history (hours):
 
Tides and Currents Weather Stations Pressure Air Temp Water Temp Dewpoint Dewpoint Depression Visibility Wind Speed Wind Dir Waves Ship Positions

Juan De La Cosa

Last reported at 2014-Aug-16 22:22 UTC. Time now 2014-Aug-29 03:31 UTC.
Position N 51°20' W 011°59'.
Warning: this ship's position is 12 days out of date.

Length 75 m; draft 4.5 m.

Type: Medical transport. MMSI: 224612000.

Date/timePositionNaut miles runAvg speedWind from/ knotsBaromVisibWave heightAir tempDewpointWater temp
2014-Aug-16 22:22N 51°20' W 011°59'13 5.8
2014-Aug-16 20:07N 51°07' W 011°58'4 6.5
2014-Aug-16 19:34N 51°04' W 011°59'21 4.1
2014-Aug-16 14:24N 50°47' W 011°38'7 2.4
2014-Aug-16 11:16N 50°42' W 011°29'1 0.8
2014-Aug-16 10:33N 50°42' W 011°30'1 0.7
2014-Aug-16 09:33N 50°43' W 011°31'1 0.8
2014-Aug-16 08:30N 50°43' W 011°32'1 0.9
2014-Aug-16 07:31N 50°44' W 011°33'1 0.9
2014-Aug-16 06:33N 50°44' W 011°34'1 0.9
2014-Aug-16 05:33N 50°45' W 011°36'1 0.9
2014-Aug-16 04:23N 50°45' W 011°37'1 1.2
2014-Aug-16 03:32N 50°46' W 011°38'1 0.7
2014-Aug-16 01:33N 50°47' W 011°40'1 0.7
2014-Aug-16 00:29N 50°47' W 011°41'1 0.7
2014-Aug-15 23:32N 50°48' W 011°42'0 0.4
2014-Aug-15 22:21N 50°48' W 011°42'0 0.3
2014-Aug-15 21:30N 50°48' W 011°42'0 0.3
2014-Aug-15 20:27N 50°49' W 011°42'0 0.4
2014-Aug-15 19:33N 50°49' W 011°42'1 0.5
2014-Aug-15 18:32N 50°50' W 011°42'1 0.5
2014-Aug-15 17:31N 50°50' W 011°43'2 0.8
2014-Aug-15 14:21N 50°53' W 011°44'59 3.3
2014-Aug-14 20:24N 51°16' W 010°18'7 7.6
2014-Aug-14 19:26N 51°22' W 010°11'6 7.4
2014-Aug-14 18:33N 51°27' W 010°05'7 7.4
2014-Aug-14 17:33N 51°33' W 009°57'3 3.3
2014-Aug-14 16:33N 51°35' W 009°55'1 0.8
2014-Aug-14 15:33N 51°35' W 009°56'0 0.4
2014-Aug-14 14:30N 51°35' W 009°56'1 1.5
2014-Aug-14 13:33N 51°36' W 009°54'1 0.7
2014-Aug-14 12:32N 51°36' W 009°55'0 0.4
2014-Aug-14 11:34N 51°36' W 009°56'1 1.0
2014-Aug-14 10:34N 51°35' W 009°55'0 0.4
2014-Aug-14 09:33N 51°35' W 009°55'0 0.4
2014-Aug-14 08:33N 51°35' W 009°56'1 0.5
2014-Aug-14 07:33N 51°36' W 009°56'4 4.4
2014-Aug-14 06:33N 51°32' W 009°60'6 6.3
2014-Aug-14 05:33N 51°27' W 010°06'8 8.2
2014-Aug-14 04:33N 51°21' W 010°15'9 8.1
2014-Aug-14 03:26N 51°14' W 010°25'  
Track history (hours):
 
Tides and Currents Weather Stations Pressure Air Temp Water Temp Dewpoint Dewpoint Depression Visibility Wind Speed Wind Dir Waves Ship Positions

Juan De La Cosa

Last reported at 2014-Aug-16 22:22 UTC. Time now 2014-Aug-29 03:31 UTC.
Position N 51°20' W 011°59'.
Warning: this ship's position is 12 days out of date.

Length 75 m; draft 4.5 m.

Type: Medical transport. MMSI: 224612000.

Date/timePositionNaut miles runAvg speedWind from/ knotsBaromVisibWave heightAir tempDewpointWater temp
2014-Aug-16 22:22N 51°20' W 011°59'13 5.8
2014-Aug-16 20:07N 51°07' W 011°58'4 6.5
2014-Aug-16 19:34N 51°04' W 011°59'21 4.1
2014-Aug-16 14:24N 50°47' W 011°38'7 2.4
2014-Aug-16 11:16N 50°42' W 011°29'1 0.8
2014-Aug-16 10:33N 50°42' W 011°30'1 0.7
2014-Aug-16 09:33N 50°43' W 011°31'1 0.8
2014-Aug-16 08:30N 50°43' W 011°32'1 0.9
2014-Aug-16 07:31N 50°44' W 011°33'1 0.9
2014-Aug-16 06:33N 50°44' W 011°34'1 0.9
2014-Aug-16 05:33N 50°45' W 011°36'1 0.9
2014-Aug-16 04:23N 50°45' W 011°37'1 1.2
2014-Aug-16 03:32N 50°46' W 011°38'1 0.7
2014-Aug-16 01:33N 50°47' W 011°40'1 0.7
2014-Aug-16 00:29N 50°47' W 011°41'1 0.7
2014-Aug-15 23:32N 50°48' W 011°42'0 0.4
2014-Aug-15 22:21N 50°48' W 011°42'0 0.3
2014-Aug-15 21:30N 50°48' W 011°42'0 0.3
2014-Aug-15 20:27N 50°49' W 011°42'0 0.4
2014-Aug-15 19:33N 50°49' W 011°42'1 0.5
2014-Aug-15 18:32N 50°50' W 011°42'1 0.5
2014-Aug-15 17:31N 50°50' W 011°43'2 0.8
2014-Aug-15 14:21N 50°53' W 011°44'59 3.3
2014-Aug-14 20:24N 51°16' W 010°18'7 7.6
2014-Aug-14 19:26N 51°22' W 010°11'6 7.4
2014-Aug-14 18:33N 51°27' W 010°05'7 7.4
2014-Aug-14 17:33N 51°33' W 009°57'3 3.3
2014-Aug-14 16:33N 51°35' W 009°55'1 0.8
2014-Aug-14 15:33N 51°35' W 009°56'0 0.4
2014-Aug-14 14:30N 51°35' W 009°56'1 1.5
2014-Aug-14 13:33N 51°36' W 009°54'1 0.7
2014-Aug-14 12:32N 51°36' W 009°55'0 0.4
2014-Aug-14 11:34N 51°36' W 009°56'1 1.0
2014-Aug-14 10:34N 51°35' W 009°55'0 0.4
2014-Aug-14 09:33N 51°35' W 009°55'0 0.4
2014-Aug-14 08:33N 51°35' W 009°56'1 0.5
2014-Aug-14 07:33N 51°36' W 009°56'4 4.4
2014-Aug-14 06:33N 51°32' W 009°60'6 6.3
2014-Aug-14 05:33N 51°27' W 010°06'8 8.2
2014-Aug-14 04:33N 51°21' W 010°15'9 8.1
2014-Aug-14 03:26N 51°14' W 010°25'  

Dump ship's entire track history